Time;durP1;ratioP1;P1;durP2;ratioP2;P2;SDS_P1;SDS_P2;PMS_P1;PMS_P2;Temp;Humidity;BMP_temperature;BMP_pressure;BME280_temperature;BME280_humidity;BME280_pressure;Samples;Min_cycle;Max_cycle;Signal;HPM_P1;HPM_P2
2022/07/25 00:00:36;;;;;;;8.85;7.88;;;;;;;30.01;44.12;98058.56;5011942;28;20201;-63
2022/07/25 00:03:01;;;;;;;11.02;7.35;;;;;;;30.13;44.35;98092.25;5012034;28;20174;-63
2022/07/25 00:05:27;;;;;;;8.00;7.30;;;;;;;30.13;44.19;98094.13;5012070;28;20176;-63
2022/07/25 00:07:53;;;;;;;11.45;8.05;;;;;;;30.20;44.24;98097.44;5012013;28;20167;-63
2022/07/25 00:10:18;;;;;;;9.38;7.38;;;;;;;30.18;44.13;98091.53;5011943;28;20236;-64
2022/07/25 00:12:44;;;;;;;12.73;7.65;;;;;;;30.18;44.43;98099.53;5012040;28;20220;-63
2022/07/25 00:15:10;;;;;;;9.82;7.43;;;;;;;30.12;44.38;98093.28;5011952;28;20178;-63
2022/07/25 00:17:35;;;;;;;9.45;7.30;;;;;;;29.99;44.57;98104.19;5011859;28;20401;-63
2022/07/25 00:20:01;;;;;;;8.55;7.57;;;;;;;29.99;44.41;98103.38;5011783;28;20179;-63
2022/07/25 00:22:27;;;;;;;11.95;7.50;;;;;;;29.98;44.02;98126.59;5011836;28;20623;-63
2022/07/25 00:24:52;;;;;;;7.47;6.78;;;;;;;29.61;43.41;98079.88;5012109;28;20671;-63
2022/07/25 00:27:18;;;;;;;8.40;7.40;;;;;;;29.80;43.24;98126.72;5010569;28;20276;-63
2022/07/25 00:29:43;;;;;;;8.73;6.65;;;;;;;29.64;43.29;98140.78;5011805;28;20194;-63
2022/07/25 00:32:08;;;;;;;7.63;7.00;;;;;;;29.56;45.00;98129.66;5011675;28;20667;-63
2022/07/25 00:34:34;;;;;;;7.85;7.05;;;;;;;29.43;46.53;98157.31;5012021;28;20652;-63
2022/07/25 00:36:59;;;;;;;10.60;7.88;;;;;;;29.24;47.03;98165.63;5011712;28;20624;-63
2022/07/25 00:39:25;;;;;;;8.20;7.50;;;;;;;28.98;48.68;98164.16;5011953;28;20175;-63
2022/07/25 00:41:50;;;;;;;9.20;7.38;;;;;;;28.66;50.58;98176.06;5012261;28;20265;-63
2022/07/25 00:44:27;;;;;;;9.07;8.18;;;;;;;28.58;52.90;98180.88;5015303;28;20679;-62
2022/07/25 00:46:54;;;;;;;9.05;8.10;;;;;;;28.39;55.80;98168.63;5015409;28;20179;-62
2022/07/25 00:49:19;;;;;;;10.55;8.88;;;;;;;28.14;60.18;98168.69;5014255;28;20175;-63
2022/07/25 00:51:45;;;;;;;18.13;8.75;;;;;;;27.74;62.98;98143.47;5015171;28;20171;-62
2022/07/25 00:54:11;;;;;;;13.75;8.98;;;;;;;27.53;65.77;98157.16;5015052;28;20171;-63
2022/07/25 00:56:37;;;;;;;8.95;8.05;;;;;;;27.11;68.92;98131.31;5015061;28;20537;-62
2022/07/25 00:59:03;;;;;;;13.02;7.68;;;;;;;26.68;70.49;98151.63;5030141;28;20719;-62
2022/07/25 01:01:28;;;;;;;7.18;6.57;;;;;;;26.24;70.57;98140.97;5014853;28;20194;-62
2022/07/25 01:03:54;;;;;;;8.27;6.03;;;;;;;25.77;72.96;98151.91;5015303;28;20178;-62
2022/07/25 01:06:20;;;;;;;10.63;6.88;;;;;;;25.41;80.97;98151.53;5014825;28;20170;-62
2022/07/25 01:08:46;;;;;;;8.35;7.53;;;;;;;25.18;82.93;98127.25;5015107;28;20603;-62
2022/07/25 01:11:11;;;;;;;9.98;9.05;;;;;;;25.10;85.43;98138.06;5014786;28;20175;-62
2022/07/25 01:13:37;;;;;;;11.55;9.18;;;;;;;25.00;90.19;98142.94;5015514;28;20183;-62
2022/07/25 01:16:03;;;;;;;9.43;8.65;;;;;;;24.96;90.05;98141.69;5014924;28;20206;-62
2022/07/25 01:18:28;;;;;;;9.43;8.40;;;;;;;24.82;81.50;98104.81;5014831;28;20674;-63
2022/07/25 01:20:54;;;;;;;10.07;8.10;;;;;;;24.77;78.42;98137.19;5014795;28;20273;-62
2022/07/25 01:23:19;;;;;;;10.95;8.95;;;;;;;24.62;80.50;98149.75;5014518;28;20175;-62
2022/07/25 01:25:44;;;;;;;12.98;8.30;;;;;;;24.27;79.03;98171.19;5014742;28;20644;-62
2022/07/25 01:28:10;;;;;;;9.40;8.38;;;;;;;23.98;84.00;98174.09;5014405;28;20182;-61
2022/07/25 01:30:35;;;;;;;15.10;10.05;;;;;;;23.61;87.74;98160.38;5014365;28;20171;-62
2022/07/25 01:33:01;;;;;;;13.40;9.70;;;;;;;23.39;90.14;98170.19;5014204;28;20233;-63
2022/07/25 01:35:26;;;;;;;14.60;10.00;;;;;;;23.05;91.67;98182.41;5013048;28;20186;-62
2022/07/25 01:37:52;;;;;;;13.02;9.90;;;;;;;23.15;92.67;98178.47;5014528;28;20213;-61
2022/07/25 01:40:17;;;;;;;18.10;10.88;;;;;;;22.83;96.99;98175.50;5014155;28;20248;-62
2022/07/25 01:42:43;;;;;;;11.80;9.63;;;;;;;22.72;95.23;98166.25;5014425;28;20168;-62
2022/07/25 01:45:10;;;;;;;13.68;11.73;;;;;;;22.65;98.29;98175.91;5014616;28;20249;-62
2022/07/25 01:47:35;;;;;;;12.23;11.05;;;;;;;22.66;98.12;98167.00;5014072;28;20166;-63
2022/07/25 01:50:01;;;;;;;12.60;11.00;;;;;;;22.56;100.00;98147.22;5014068;28;20173;-62
2022/07/25 01:52:26;;;;;;;11.77;10.63;;;;;;;22.33;100.00;98130.69;5014026;28;20589;-62
2022/07/25 01:54:51;;;;;;;12.23;11.02;;;;;;;21.88;100.00;98129.13;5013067;28;20174;-62
2022/07/25 01:57:17;;;;;;;10.93;9.90;;;;;;;21.77;100.00;98116.41;5013878;28;20167;-62
2022/07/25 01:59:42;;;;;;;12.82;11.63;;;;;;;21.69;100.00;98097.22;5013845;28;20533;-62
2022/07/25 02:02:08;;;;;;;13.65;12.18;;;;;;;21.72;100.00;98092.41;5013749;28;20194;-61
2022/07/25 02:04:34;;;;;;;12.65;11.35;;;;;;;21.69;100.00;98063.00;5013819;28;20181;-61
2022/07/25 02:07:00;;;;;;;12.30;11.15;;;;;;;21.67;100.00;98078.16;5013946;28;20178;-61
2022/07/25 02:09:26;;;;;;;13.95;12.60;;;;;;;21.67;100.00;98062.34;5013691;28;20721;-61
2022/07/25 02:11:51;;;;;;;13.45;12.10;;;;;;;21.41;100.00;98056.69;5013647;28;20170;-62
2022/07/25 02:14:17;;;;;;;15.07;12.45;;;;;;;21.48;100.00;98047.06;5013594;28;20198;-62
2022/07/25 02:16:42;;;;;;;13.70;12.40;;;;;;;21.58;100.00;98039.72;5012313;28;20570;-61
2022/07/25 02:19:08;;;;;;;12.30;10.95;;;;;;;21.48;100.00;98032.09;5013468;28;20563;-62
2022/07/25 02:21:33;;;;;;;14.40;11.88;;;;;;;21.57;100.00;98024.94;5013359;28;20272;-62
2022/07/25 02:23:59;;;;;;;16.48;12.57;;;;;;;21.65;100.00;98027.44;5013396;28;20174;-61
2022/07/25 02:26:24;;;;;;;13.90;12.25;;;;;;;21.74;100.00;98015.84;5013392;28;20186;-61
2022/07/25 02:28:50;;;;;;;13.15;11.85;;;;;;;21.90;100.00;98016.44;5013296;28;20174;-62
2022/07/25 02:31:15;;;;;;;15.68;11.95;;;;;;;21.93;100.00;98005.56;5013189;28;20648;-62
2022/07/25 02:33:42;;;;;;;13.27;11.88;;;;;;;22.04;100.00;98009.53;5013220;28;20198;-61
2022/07/25 02:36:08;;;;;;;12.85;11.65;;;;;;;22.05;100.00;98005.88;5013295;28;20198;-62
2022/07/25 02:38:33;;;;;;;13.32;11.93;;;;;;;22.04;100.00;98006.88;5011934;28;20655;-62
2022/07/25 02:40:59;;;;;;;13.50;12.20;;;;;;;22.03;100.00;98013.16;5013152;28;20680;-62
2022/07/25 02:43:24;;;;;;;12.77;11.55;;;;;;;21.95;100.00;98000.09;5013127;28;20636;-62
2022/07/25 02:45:49;;;;;;;12.93;11.63;;;;;;;21.96;100.00;98012.28;5013235;28;20166;-62
2022/07/25 02:48:15;;;;;;;13.30;12.00;;;;;;;21.86;100.00;98011.75;5013310;28;20689;-62
2022/07/25 02:50:40;;;;;;;15.05;11.70;;;;;;;21.71;100.00;98010.94;5013132;28;20612;-62
2022/07/25 02:53:06;;;;;;;12.68;11.43;;;;;;;21.64;100.00;98020.56;5013240;28;20178;-61
2022/07/25 02:55:32;;;;;;;12.60;11.40;;;;;;;21.60;100.00;98019.28;5013115;28;20174;-62
2022/07/25 02:57:57;;;;;;;11.70;10.52;;;;;;;21.65;100.00;98014.28;5013050;28;20225;-62
2022/07/25 03:00:23;;;;;;;11.70;10.60;;;;;;;21.68;100.00;98016.59;5012768;28;20241;-62
2022/07/25 03:02:49;;;;;;;10.35;9.38;;;;;;;21.72;100.00;98013.41;5012748;28;20174;-62
2022/07/25 03:05:16;;;;;;;11.23;10.23;;;;;;;21.87;100.00;98018.66;5012579;28;20611;-62
2022/07/25 03:07:44;;;;;;;11.98;9.57;;;;;;;21.86;100.00;98030.19;5012627;28;20236;-62
2022/07/25 03:10:11;;;;;;;10.63;9.73;;;;;;;21.93;100.00;98047.72;5012585;28;20180;-62
2022/07/25 03:12:37;;;;;;;10.52;9.63;;;;;;;22.03;100.00;98044.78;5012575;28;20178;-61
2022/07/25 03:15:05;;;;;;;11.75;9.85;;;;;;;22.09;100.00;98051.94;5012791;28;20175;-62
2022/07/25 03:17:30;;;;;;;10.43;9.43;;;;;;;22.13;100.00;98043.47;5012952;28;20265;-61
2022/07/25 03:19:56;;;;;;;10.23;9.15;;;;;;;22.11;100.00;98045.50;5012666;28;20188;-62
2022/07/25 03:22:23;;;;;;;10.68;9.77;;;;;;;22.12;100.00;98039.22;5012704;28;20171;-63
2022/07/25 03:24:49;;;;;;;10.52;9.63;;;;;;;22.09;100.00;98062.50;5012962;28;20647;-61
2022/07/25 03:27:15;;;;;;;11.43;10.32;;;;;;;22.24;100.00;98063.25;5012381;28;20212;-62
2022/07/25 03:29:41;;;;;;;11.45;10.30;;;;;;;22.39;100.00;98077.22;5012315;28;20265;-62
2022/07/25 03:32:07;;;;;;;9.25;8.27;;;;;;;22.56;100.00;98081.28;5012213;28;20190;-62
2022/07/25 03:34:33;;;;;;;9.30;8.60;;;;;;;22.53;100.00;98086.91;5012401;28;20171;-62
2022/07/25 03:36:59;;;;;;;10.13;9.23;;;;;;;22.53;100.00;98094.81;5012542;28;20181;-61
2022/07/25 03:39:26;;;;;;;10.88;9.77;;;;;;;22.50;100.00;98103.13;5011051;28;20179;-62
2022/07/25 03:41:51;;;;;;;10.95;9.85;;;;;;;22.43;100.00;98081.94;5012392;28;20260;-62
2022/07/25 03:44:21;;;;;;;9.73;8.88;;;;;;;22.46;100.00;98086.03;5012345;28;20179;-63
2022/07/25 03:46:47;;;;;;;9.85;8.93;;;;;;;22.50;100.00;98101.28;5012174;28;20174;-62
2022/07/25 03:49:12;;;;;;;9.80;8.88;;;;;;;22.51;100.00;98078.38;5012439;28;20685;-62
2022/07/25 03:51:38;;;;;;;13.80;9.27;;;;;;;22.54;100.00;98078.81;5012160;28;20670;-62
2022/07/25 03:54:05;;;;;;;10.68;8.65;;;;;;;22.53;100.00;98074.56;5012082;28;20722;-61
2022/07/25 03:56:51;;;;;;;10.60;8.90;;;;;;;22.51;100.00;98086.28;5012384;28;20174;-62
2022/07/25 03:59:18;;;;;;;11.30;8.90;;;;;;;22.48;100.00;98078.75;5012077;28;20169;-61
2022/07/25 04:01:46;;;;;;;9.68;8.88;;;;;;;22.51;100.00;98081.03;5011986;28;20195;-62
2022/07/25 04:04:12;;;;;;;9.45;8.55;;;;;;;22.50;100.00;98072.28;5012009;28;20170;-62
2022/07/25 04:06:38;;;;;;;9.70;8.70;;;;;;;22.51;100.00;98084.50;5012231;28;20197;-62
2022/07/25 04:09:04;;;;;;;10.05;9.05;;;;;;;22.52;100.00;98070.28;5012249;28;20185;-62
2022/07/25 04:11:30;;;;;;;9.48;8.68;;;;;;;22.52;100.00;98080.00;5012738;28;20178;-62
2022/07/25 04:13:56;;;;;;;9.15;8.25;;;;;;;22.50;100.00;98082.03;5012193;28;20210;-61
2022/07/25 04:16:23;;;;;;;9.75;8.85;;;;;;;22.51;100.00;98084.50;5012020;28;20186;-62
2022/07/25 04:18:50;;;;;;;9.55;8.63;;;;;;;22.49;100.00;98083.84;5015947;28;20178;-62
2022/07/25 04:21:15;;;;;;;10.55;9.55;;;;;;;22.53;100.00;98086.91;5014470;28;20202;-62
2022/07/25 04:23:41;;;;;;;10.30;9.30;;;;;;;22.56;100.00;98091.81;5015764;28;20180;-62
2022/07/25 04:26:06;;;;;;;9.65;8.82;;;;;;;22.57;100.00;98098.72;5015684;28;20179;-62
2022/07/25 04:28:32;;;;;;;10.35;9.45;;;;;;;22.66;100.00;98097.63;5015859;28;20171;-62
2022/07/25 04:30:57;;;;;;;10.38;9.35;;;;;;;22.71;100.00;98095.22;5015479;28;20253;-62
2022/07/25 04:33:23;;;;;;;10.63;9.73;;;;;;;22.63;100.00;98092.69;5015359;28;20300;-62
2022/07/25 04:35:49;;;;;;;11.10;10.07;;;;;;;22.70;100.00;98089.13;5015435;28;20173;-61
2022/07/25 04:38:15;;;;;;;11.25;10.07;;;;;;;22.76;100.00;98103.38;5015727;28;20581;-62
2022/07/25 04:40:40;;;;;;;11.02;9.93;;;;;;;22.75;100.00;98101.75;5015408;28;20683;-62
2022/07/25 04:43:05;;;;;;;10.73;9.73;;;;;;;22.73;100.00;98106.41;5015262;28;20198;-61
2022/07/25 04:45:31;;;;;;;10.10;9.07;;;;;;;22.77;100.00;98100.56;5014135;28;20174;-62
2022/07/25 04:47:57;;;;;;;10.45;9.00;;;;;;;22.85;100.00;98105.69;5015402;28;20229;-62
2022/07/25 04:50:22;;;;;;;11.48;10.05;;;;;;;22.88;100.00;98107.13;5015202;28;20232;-62
2022/07/25 04:52:48;;;;;;;10.57;9.57;;;;;;;22.78;100.00;98094.28;5015314;28;20181;-62
2022/07/25 04:55:13;;;;;;;9.88;8.75;;;;;;;22.86;100.00;98099.44;5015071;28;20266;-62
2022/07/25 04:57:39;;;;;;;11.23;9.25;;;;;;;22.89;100.00;98093.78;5015046;28;20656;-62
2022/07/25 05:00:06;;;;;;;9.55;8.65;;;;;;;22.83;100.00;98104.25;5014990;28;20178;-62
2022/07/25 05:02:32;;;;;;;12.60;9.52;;;;;;;22.85;100.00;98105.69;5015223;28;20253;-62
2022/07/25 05:04:58;;;;;;;10.10;9.00;;;;;;;22.91;100.00;98097.03;5014908;28;20712;-62
2022/07/25 05:07:24;;;;;;;10.45;9.45;;;;;;;22.94;100.00;98096.66;5014878;28;20219;-62
2022/07/25 05:09:49;;;;;;;9.93;9.02;;;;;;;22.89;100.00;98106.97;5014868;28;20262;-62
2022/07/25 05:12:14;;;;;;;10.35;9.32;;;;;;;22.94;100.00;98109.03;5015057;28;20261;-62
2022/07/25 05:14:40;;;;;;;10.27;9.27;;;;;;;23.03;100.00;98099.97;5014740;28;20177;-62
2022/07/25 05:17:06;;;;;;;10.48;9.50;;;;;;;23.15;100.00;98107.19;5014674;28;20651;-62
2022/07/25 05:19:31;;;;;;;10.50;9.50;;;;;;;23.31;99.47;98108.78;5014620;28;20174;-62
2022/07/25 05:21:56;;;;;;;10.50;9.60;;;;;;;23.35;99.83;98112.63;5014547;28;20648;-63
2022/07/25 05:24:22;;;;;;;11.27;10.27;;;;;;;23.46;98.00;98109.47;5014609;28;20173;-62
2022/07/25 05:26:48;;;;;;;11.05;9.95;;;;;;;23.61;96.65;98100.44;5014510;28;20170;-62
2022/07/25 05:29:14;;;;;;;10.65;9.65;;;;;;;23.71;95.65;98110.66;5013174;28;20175;-62
2022/07/25 05:31:40;;;;;;;12.25;10.25;;;;;;;23.78;95.53;98107.84;5014331;28;20194;-61
2022/07/25 05:34:05;;;;;;;10.80;9.80;;;;;;;23.79;95.71;98114.78;5014309;28;20256;-61
2022/07/25 05:36:31;;;;;;;11.32;10.20;;;;;;;23.92;94.32;98108.78;5014323;28;20644;-61
2022/07/25 05:38:56;;;;;;;10.98;10.00;;;;;;;23.92;92.31;98104.28;5014302;28;20190;-61
2022/07/25 05:41:22;;;;;;;10.65;9.63;;;;;;;23.98;92.36;98096.59;5014121;28;20195;-63
2022/07/25 05:43:47;;;;;;;12.73;10.02;;;;;;;23.91;93.70;98106.31;5014503;28;20257;-62
2022/07/25 05:46:14;;;;;;;12.95;10.32;;;;;;;23.97;95.42;98113.47;5014199;28;20280;-62
2022/07/25 05:48:40;;;;;;;11.52;10.52;;;;;;;23.98;97.24;98111.44;5014142;28;20185;-62
2022/07/25 05:51:05;;;;;;;11.63;10.63;;;;;;;24.08;97.58;98102.34;5012779;28;20174;-62
2022/07/25 05:53:31;;;;;;;12.57;11.40;;;;;;;24.08;99.90;98109.25;5013991;28;20666;-62
2022/07/25 05:55:57;;;;;;;11.15;10.25;;;;;;;24.14;98.61;98108.47;5013995;28;20258;-62
2022/07/25 05:58:22;;;;;;;11.98;10.88;;;;;;;24.21;97.54;98104.00;5014132;28;20178;-63
2022/07/25 06:00:49;;;;;;;10.48;9.57;;;;;;;24.31;96.78;98104.47;5013800;28;20187;-62
2022/07/25 06:03:16;;;;;;;13.90;11.07;;;;;;;24.38;95.96;98102.66;5013851;28;20170;-62
2022/07/25 06:05:42;;;;;;;11.55;10.52;;;;;;;24.47;96.71;98103.28;5013704;28;20178;-62
2022/07/25 06:08:07;;;;;;;11.32;10.32;;;;;;;24.52;95.68;98100.84;5013856;28;20177;-62
2022/07/25 06:10:33;;;;;;;12.48;10.23;;;;;;;24.59;94.89;98105.19;5013803;28;20197;-62
2022/07/25 06:12:58;;;;;;;10.77;9.68;;;;;;;24.73;94.12;98098.09;5013925;28;20202;-61
2022/07/25 06:15:23;;;;;;;10.77;9.85;;;;;;;24.86;91.65;98093.66;5013815;28;20177;-62
2022/07/25 06:17:49;;;;;;;10.77;9.75;;;;;;;24.94;93.59;98096.06;5013558;28;20174;-62
2022/07/25 06:20:14;;;;;;;10.52;9.63;;;;;;;25.00;91.94;98100.56;5013565;28;20174;-62
2022/07/25 06:22:40;;;;;;;9.50;8.70;;;;;;;25.12;91.27;98104.22;5013740;28;20175;-62
2022/07/25 06:25:06;;;;;;;10.57;9.40;;;;;;;25.13;89.89;98103.22;5013464;28;20299;-63
2022/07/25 06:27:32;;;;;;;10.65;8.57;;;;;;;25.36;83.83;98108.94;5013624;28;20228;-63
2022/07/25 06:29:57;;;;;;;10.95;8.23;;;;;;;25.57;83.68;98100.78;5013511;28;20166;-63
2022/07/25 06:32:23;;;;;;;9.30;8.43;;;;;;;25.73;84.70;98104.81;5013170;28;20191;-62
2022/07/25 06:34:48;;;;;;;10.10;9.07;;;;;;;25.85;85.69;98090.72;5013274;28;20652;-63
2022/07/25 06:37:14;;;;;;;9.45;8.70;;;;;;;26.08;81.58;98093.72;5013428;28;20559;-62
2022/07/25 06:39:40;;;;;;;9.30;8.40;;;;;;;26.35;79.62;98097.88;5012821;28;20202;-63
2022/07/25 06:42:06;;;;;;;10.60;9.60;;;;;;;26.54;80.73;98096.19;5013228;28;20230;-63
2022/07/25 06:44:32;;;;;;;12.10;10.60;;;;;;;26.67;78.20;98085.47;5013100;28;20179;-62
2022/07/25 06:47:01;;;;;;;18.88;14.95;;;;;;;26.94;76.23;98092.25;5013039;28;20182;-62
2022/07/25 06:49:27;;;;;;;8.85;7.72;;;;;;;27.20;67.45;98092.06;5011732;28;20261;-63
2022/07/25 06:51:52;;;;;;;9.63;8.57;;;;;;;27.43;63.24;98097.56;5013228;28;20720;-62
2022/07/25 06:54:18;;;;;;;6.88;6.38;;;;;;;27.69;61.09;98087.47;5012879;28;20174;-62
2022/07/25 06:56:44;;;;;;;8.60;7.88;;;;;;;27.87;66.02;98087.53;5012898;28;20724;-63
2022/07/25 06:59:10;;;;;;;8.73;7.43;;;;;;;28.04;68.21;98085.88;5012865;28;20236;-63
2022/07/25 07:01:35;;;;;;;8.65;7.07;;;;;;;28.17;62.03;98095.56;5012995;28;20202;-63
2022/07/25 07:04:01;;;;;;;7.70;6.85;;;;;;;28.28;58.41;98092.94;5028021;28;20175;-63
2022/07/25 07:06:27;;;;;;;6.63;6.15;;;;;;;28.45;56.06;98091.31;5012795;28;20179;-63
2022/07/25 07:08:52;;;;;;;7.43;6.72;;;;;;;28.54;56.13;98087.31;5012726;28;20551;-63
2022/07/25 07:11:18;;;;;;;9.88;6.70;;;;;;;28.64;59.71;98090.25;5011549;28;20238;-63
2022/07/25 07:13:43;;;;;;;8.35;6.80;;;;;;;28.78;58.16;98105.00;5012627;28;20185;-63
2022/07/25 07:16:09;;;;;;;8.90;6.03;;;;;;;28.85;54.46;98100.38;5012841;28;20224;-63
2022/07/25 07:18:35;;;;;;;6.80;6.20;;;;;;;28.92;55.64;98108.28;5012785;28;20721;-64
2022/07/25 07:21:01;;;;;;;11.02;7.07;;;;;;;29.02;53.41;98105.88;5012703;28;20578;-64
2022/07/25 07:23:27;;;;;;;6.85;6.25;;;;;;;29.10;53.42;98111.69;5012478;28;20178;-63
2022/07/25 07:25:52;;;;;;;8.68;6.40;;;;;;;29.13;54.23;98108.59;5012473;28;20644;-64
2022/07/25 07:28:18;;;;;;;6.43;5.88;;;;;;;29.16;54.84;98102.00;5012442;28;20175;-63
2022/07/25 07:30:44;;;;;;;6.75;6.15;;;;;;;29.20;56.68;98100.50;5012612;28;20167;-63
2022/07/25 07:33:09;;;;;;;6.97;6.40;;;;;;;29.27;56.07;98109.97;5012194;28;20217;-62
2022/07/25 07:35:35;;;;;;;9.32;6.38;;;;;;;29.35;54.29;98112.34;5012570;28;20174;-62
2022/07/25 07:38:00;;;;;;;6.40;5.80;;;;;;;29.35;54.24;98107.00;5012319;28;20667;-64
2022/07/25 07:40:26;;;;;;;7.90;6.30;;;;;;;29.40;51.07;98106.28;5012240;28;20198;-62
2022/07/25 07:42:52;;;;;;;7.55;6.95;;;;;;;29.40;52.40;98111.63;5012177;28;20612;-61
2022/07/25 07:45:22;;;;;;;6.68;6.18;;;;;;;29.34;53.50;98115.22;5012255;28;20221;-61
2022/07/25 07:47:50;;;;;;;7.25;6.60;;;;;;;29.30;53.81;98106.88;5012179;28;20170;-61
2022/07/25 07:50:17;;;;;;;7.25;6.57;;;;;;;29.41;51.15;98111.41;5012468;28;20533;-63
2022/07/25 07:52:44;;;;;;;6.55;6.00;;;;;;;29.46;50.77;98122.19;5014417;28;20170;-62
2022/07/25 07:57:54;;;;;;;8.02;6.07;;;;;;;29.44;50.39;98105.59;5016562;28;20165;-62
2022/07/25 08:00:20;;;;;;;7.13;6.43;;;;;;;29.57;51.60;98123.25;5016090;28;20170;-62
2022/07/25 08:02:51;;;;;;;7.40;6.70;;;;;;;29.56;49.36;98114.44;5016231;28;20258;-62
2022/07/25 08:05:22;;;;;;;6.78;6.07;;;;;;;29.61;49.91;98121.75;5016176;28;20171;-62
2022/07/25 08:07:50;;;;;;;12.35;7.32;;;;;;;29.55;49.80;98118.16;5016028;28;20253;-62
2022/07/25 08:10:23;;;;;;;6.82;6.15;;;;;;;29.49;50.76;98113.72;5015948;28;20174;-63
2022/07/25 08:12:48;;;;;;;7.65;6.07;;;;;;;29.55;50.17;98122.69;5015927;28;20639;-62
2022/07/25 08:15:14;;;;;;;7.22;6.55;;;;;;;29.54;49.79;98127.19;5015911;28;20249;-62
2022/07/25 08:17:40;;;;;;;6.53;6.03;;;;;;;29.51;49.26;98127.63;5015846;28;20171;-62
2022/07/25 08:20:07;;;;;;;6.50;6.00;;;;;;;29.47;49.75;98123.81;5031085;28;20213;-62
2022/07/25 08:22:41;;;;;;;7.35;6.65;;;;;;;29.47;49.71;98130.97;5016032;28;20189;-62
2022/07/25 08:25:08;;;;;;;6.60;5.90;;;;;;;29.46;49.91;98122.19;5015660;28;20714;-62
2022/07/25 08:27:34;;;;;;;8.10;7.50;;;;;;;29.51;55.21;98124.94;5015632;28;20185;-63
2022/07/25 08:30:00;;;;;;;11.40;9.02;;;;;;;29.51;60.17;98124.94;5015573;28;20627;-62
2022/07/25 08:32:29;;;;;;;9.02;8.23;;;;;;;29.47;61.77;98120.31;5015395;28;20190;-62
2022/07/25 08:34:55;;;;;;;9.38;8.55;;;;;;;29.47;63.97;98121.16;5015661;28;20715;-62
2022/07/25 08:37:21;;;;;;;9.02;8.23;;;;;;;29.34;65.53;98113.38;5015452;28;20185;-62
2022/07/25 08:39:47;;;;;;;9.65;8.82;;;;;;;29.30;65.68;98120.19;5015565;28;20187;-62
2022/07/25 08:42:12;;;;;;;9.90;8.90;;;;;;;29.39;65.65;98113.47;5015555;28;20727;-62
2022/07/25 08:44:42;;;;;;;10.02;8.13;;;;;;;29.47;64.88;98121.16;5015375;28;20741;-63
2022/07/25 08:47:09;;;;;;;8.63;7.82;;;;;;;29.62;62.53;98121.50;5015802;28;20181;-62
2022/07/25 08:49:34;;;;;;;8.25;7.55;;;;;;;29.75;59.65;98118.63;5015529;28;20243;-62
2022/07/25 08:52:02;;;;;;;9.15;8.35;;;;;;;29.86;61.23;98114.31;5015212;28;20171;-62
2022/07/25 08:54:30;;;;;;;9.65;8.65;;;;;;;29.90;62.65;98113.59;5015374;28;20178;-63
2022/07/25 08:56:55;;;;;;;8.57;7.85;;;;;;;30.00;61.24;98111.16;5015418;28;20206;-63
2022/07/25 08:59:20;;;;;;;11.05;7.90;;;;;;;30.09;57.04;98115.09;5015102;28;20355;-62
2022/07/25 09:01:46;;;;;;;7.78;7.07;;;;;;;30.16;56.01;98125.66;5015002;28;20202;-63
2022/07/25 09:04:12;;;;;;;9.73;7.18;;;;;;;30.03;52.88;98124.03;5029940;28;20715;-63
2022/07/25 09:06:48;;;;;;;7.85;7.13;;;;;;;30.14;53.64;98125.09;5014934;28;20175;-63
2022/07/25 09:09:14;;;;;;;7.25;6.60;;;;;;;30.20;49.90;98116.94;5014958;28;20244;-62
2022/07/25 09:11:39;;;;;;;7.35;6.70;;;;;;;30.30;49.10;98117.16;5013580;28;20182;-63
2022/07/25 09:14:10;;;;;;;7.00;6.32;;;;;;;30.48;44.11;98108.94;5014851;28;20182;-62
2022/07/25 09:16:38;;;;;;;7.78;6.60;;;;;;;30.61;46.79;98107.88;5014728;28;20186;-63
2022/07/25 09:19:09;;;;;;;7.65;6.90;;;;;;;30.72;47.11;98115.06;5014681;28;20206;-62
2022/07/25 09:21:35;;;;;;;7.25;6.65;;;;;;;30.82;45.98;98108.00;5014584;28;20676;-63
2022/07/25 09:24:15;;;;;;;6.57;6.03;;;;;;;30.93;43.76;98109.00;5014606;28;20182;-63
2022/07/25 09:26:53;;;;;;;6.90;6.30;;;;;;;31.01;43.83;98108.63;5014873;28;20178;-63
2022/07/25 09:29:31;;;;;;;10.20;7.38;;;;;;;31.16;43.92;98109.69;5014524;28;20174;-63
2022/07/25 09:31:58;;;;;;;7.22;6.53;;;;;;;31.24;43.87;98108.50;5014374;28;20201;-63
2022/07/25 09:34:38;;;;;;;7.47;6.25;;;;;;;31.32;42.85;98103.56;5014353;28;20695;-63
2022/07/25 09:37:06;;;;;;;7.70;6.93;;;;;;;31.46;43.61;98107.50;5014480;28;20162;-63
2022/07/25 09:39:36;;;;;;;7.30;6.60;;;;;;;31.55;43.04;98113.25;5014379;28;20187;-63
2022/07/25 09:42:02;;;;;;;7.55;6.68;;;;;;;31.49;42.12;98107.00;5014364;28;20256;-63
2022/07/25 09:44:30;;;;;;;7.28;6.60;;;;;;;31.61;40.98;98099.72;5014275;28;20610;-64
2022/07/25 09:46:59;;;;;;;7.55;6.57;;;;;;;31.72;41.02;98109.50;5013279;28;20178;-62
2022/07/25 09:49:35;;;;;;;6.90;6.10;;;;;;;31.82;41.92;98101.63;5014117;28;20174;-62
2022/07/25 09:52:01;;;;;;;7.30;6.03;;;;;;;31.94;42.75;98102.31;5014232;28;20165;-62
2022/07/25 09:54:29;;;;;;;8.52;6.78;;;;;;;32.06;42.00;98094.19;5013987;28;20648;-62
2022/07/25 09:56:54;;;;;;;7.45;6.60;;;;;;;32.18;42.06;98094.88;5014036;28;20178;-63
2022/07/25 09:59:20;;;;;;;7.75;6.68;;;;;;;32.22;41.30;98096.81;5014075;28;20667;-63
2022/07/25 10:01:52;;;;;;;9.27;6.63;;;;;;;32.30;41.07;98093.69;5013869;28;20202;-63
2022/07/25 10:04:29;;;;;;;7.57;6.88;;;;;;;32.28;41.26;98098.50;5014119;28;20203;-63
2022/07/25 10:07:08;;;;;;;7.88;7.07;;;;;;;32.30;41.33;98099.06;5014004;28;20201;-63
2022/07/25 10:09:40;;;;;;;8.38;6.47;;;;;;;32.45;41.74;98091.22;5014103;28;20249;-63
2022/07/25 10:12:08;;;;;;;7.10;6.40;;;;;;;32.51;40.10;98100.91;5014077;28;20155;-63
2022/07/25 10:14:35;;;;;;;6.68;6.05;;;;;;;32.64;39.79;98089.78;5013266;28;20606;-63
2022/07/25 10:17:01;;;;;;;8.00;6.13;;;;;;;32.75;38.48;98086.16;5013656;28;20254;-63
2022/07/25 10:19:44;;;;;;;9.65;6.50;;;;;;;32.76;38.39;98085.13;5013789;28;20268;-63
2022/07/25 10:22:10;;;;;;;6.68;6.00;;;;;;;32.86;37.57;98079.03;5013635;28;20201;-63
2022/07/25 10:24:37;;;;;;;7.03;6.35;;;;;;;32.95;38.61;98085.56;5013730;28;20178;-63
2022/07/25 10:27:12;;;;;;;9.77;6.20;;;;;;;32.93;38.33;98080.44;5013728;28;20178;-63
2022/07/25 10:29:39;;;;;;;6.65;6.00;;;;;;;33.10;38.39;98075.78;5013498;28;20650;-63
2022/07/25 10:32:06;;;;;;;7.88;6.13;;;;;;;33.22;36.90;98087.13;5013182;28;20237;-63
2022/07/25 10:34:33;;;;;;;8.00;6.28;;;;;;;33.38;37.16;98080.84;5013189;28;20194;-63
2022/07/25 10:37:12;;;;;;;8.18;6.60;;;;;;;33.41;36.72;98080.31;5013267;28;20673;-63
2022/07/25 10:39:40;;;;;;;7.20;6.30;;;;;;;33.57;37.14;98079.34;5013228;28;20547;-63
2022/07/25 10:42:05;;;;;;;8.70;6.63;;;;;;;33.70;35.94;98072.72;5013063;28;20190;-63
2022/07/25 10:44:47;;;;;;;7.63;5.93;;;;;;;33.74;36.21;98074.63;5013244;28;20227;-63
2022/07/25 10:47:13;;;;;;;6.68;6.13;;;;;;;33.80;36.73;98073.63;5013235;28;20155;-63
2022/07/25 10:49:41;;;;;;;6.72;6.03;;;;;;;33.96;34.82;98072.63;5013303;28;20185;-63
2022/07/25 10:52:14;;;;;;;7.25;6.55;;;;;;;33.90;35.17;98068.28;5013254;28;20178;-63
2022/07/25 10:54:40;;;;;;;6.68;6.07;;;;;;;34.11;34.85;98067.31;5012983;28;20159;-63
2022/07/25 10:57:12;;;;;;;8.65;6.72;;;;;;;34.20;35.16;98070.28;5011696;28;20180;-63
2022/07/25 10:59:38;;;;;;;7.20;6.60;;;;;;;34.46;36.10;98072.84;5012945;28;20241;-63
2022/07/25 11:02:07;;;;;;;6.80;6.18;;;;;;;34.72;34.43;98066.41;5012806;28;20229;-63
2022/07/25 11:04:33;;;;;;;6.63;5.93;;;;;;;34.82;34.92;98058.41;5013073;28;20244;-63
2022/07/25 11:07:16;;;;;;;7.38;6.30;;;;;;;35.16;33.68;98062.19;5012725;28;20644;-63
2022/07/25 11:09:43;;;;;;;7.03;6.35;;;;;;;35.18;32.58;98054.63;5012872;28;20654;-63
2022/07/25 11:12:13;;;;;;;6.68;6.07;;;;;;;35.23;33.10;98061.91;5012670;28;20166;-63
2022/07/25 11:14:41;;;;;;;6.75;6.15;;;;;;;35.33;34.13;98057.31;5012958;28;20598;-63
2022/07/25 11:17:21;;;;;;;10.10;6.53;;;;;;;35.25;33.52;98044.41;5012847;28;20228;-63
2022/07/25 11:20:08;;;;;;;7.30;6.70;;;;;;;34.89;34.96;98047.38;5012661;28;20150;-63
2022/07/25 11:22:34;;;;;;;8.68;6.22;;;;;;;35.11;33.70;98047.91;5012382;28;20205;-63
2022/07/25 11:25:01;;;;;;;11.80;6.20;;;;;;;35.18;34.34;98048.44;5012484;28;20228;-63